Orlando, Florida
Traffic Map
Current Weather Conditions
Orlando, Florida
Few Clouds
Few Clouds
27°
Feels Like: 29°
Wind Chill: 27° Ceiling: Unl
Heat Index: 29° Visibility: 10mi
Dew Point: 23° Wind: 5mph
Humidity: 81% Direction: 100° (E)
Pressure: 30.04in Gusts: 0mph
Raw Report DataKORL 250153Z 10004KT 10SM FEW060 27/23 A3004 RMK AO2 SLP173 T02670233
Traffic Incident Summary
Active as of:
Severity:
Category:
InformationThere was an issue retrieving the traffic information for this location. Please try a different location or try again shortly.
Advertisements
Track Severe Weather on mobile